Terminal Aerodrome Forecast
Issued by NWS Wilmington, OH

Home | Current Version | Previous Version | Text Only | Print | Product List | Glossary On
Versions: 1 2 3 4 5 6 7 8 9 10 11 12 13 14 15 16 17 18 19 20 21 22 23 24 25 26 27
000
FTUS41 KILN 221700
TAFILN
TAF
KILN 221738Z 2218/2318 23007KT P6SM FEW020 BKN250
     FM230100 31004KT P6SM SCT020 BKN250
     FM230600 VRB03KT 4SM BR SCT015 BKN250
     FM230800 VRB03KT 1SM BR BKN008
     FM231400 08003KT 4SM BR SCT010
     FM231500 07004KT P6SM SCT020=

USA.gov is the U.S. government's official web portal to all federal, state and local government web resources and services.